Погода Флорестополисна 2 недели

Парана, Бразилия

15 - 28 июня
  • 15июня
    Сегодня
    +18°
    +31°
    Практически безоблачно
    ВремяПогодаТемператураВлажностьДавлениеВетер, м/сВероятность осадков
    00:00Ясно и безоблачно+24°C51 %731 мм3.4 м/с5 %
    03:00Ясно и безоблачно+21°C70 %731 мм2.0 м/с5 %
    06:00Ясно и безоблачно+19°C72 %732 мм2.0 м/с5 %
    09:00Ясно и безоблачно+22°C58 %734 мм2.0 м/с5 %
    12:00Ясно и безоблачно+27°C44 %734 мм2.9 м/с5 %
    15:00Практически безоблачно+30°C31 %732 мм3.1 м/с5 %
    18:00Ясно и безоблачно+29°C42 %732 мм1.4 м/с5 %
    21:00Ясно и безоблачно+23°C57 %732 мм1.1 м/с5 %
  • 16июня
    Воскресенье
    +17°
    +31°
    Ясно и безоблачно
    ВремяПогодаТемператураВлажностьДавлениеВетер, м/сВероятность осадков
    00:00Практически безоблачно+22°C62 %732 мм2.3 м/с5 %
    03:00Практически безоблачно+20°C72 %731 мм2.3 м/с5 %
    06:00Ясно и безоблачно+19°C72 %731 мм2.2 м/с5 %
    09:00Ясно и безоблачно+23°C55 %733 мм1.8 м/с5 %
    12:00Ясно и безоблачно+28°C37 %732 мм3.2 м/с5 %
    15:00Ясно и безоблачно+31°C29 %730 мм2.9 м/с5 %
    18:00Ясно и безоблачно+27°C42 %730 мм2.5 м/с5 %
    21:00Ясно и безоблачно+24°C52 %730 мм2.5 м/с5 %
  • 17июня
    Понедельник
    +17°
    +31°
    Небольшая облачность
    ВремяПогодаТемператураВлажностьДавлениеВетер, м/сВероятность осадков
    00:00Ясно и безоблачно+22°C57 %730 мм2.6 м/с5 %
    03:00Ясно и безоблачно+20°C68 %729 мм2.1 м/с5 %
    06:00Практически безоблачно+18°C75 %729 мм2.1 м/с5 %
    09:00Небольшая облачность+22°C57 %731 мм1.5 м/с5 %
    12:00Облачно с прояснениями+28°C39 %730 мм3.1 м/с5 %
    15:00Небольшая облачность+31°C32 %728 мм3.3 м/с5 %
    18:00Ясно и безоблачно+27°C48 %728 мм2.4 м/с5 %
    21:00Ясно и безоблачно+24°C57 %728 мм2.6 м/с5 %
  • 18июня
    Вторник
    +17°
    +31°
    Ясно и безоблачно
    ВремяПогодаТемператураВлажностьДавлениеВетер, м/сВероятность осадков
    00:00Ясно и безоблачно+22°C55 %728 мм2.4 м/с5 %
    03:00Ясно и безоблачно+21°C58 %728 мм2.4 м/с5 %
    06:00Ясно и безоблачно+18°C67 %728 мм2.0 м/с5 %
    09:00Ясно и безоблачно+22°C55 %730 мм1.7 м/с5 %
    12:00Ясно и безоблачно+27°C37 %730 мм3.1 м/с5 %
    15:00Ясно и безоблачно+31°C29 %728 мм3.7 м/с5 %
    18:00Ясно и безоблачно+28°C42 %728 мм1.8 м/с5 %
    21:00Ясно и безоблачно+23°C53 %729 мм2.7 м/с5 %
  • 19июня
    Среда
    +18°
    +31°
    Ясно и безоблачно
    ВремяПогодаТемператураВлажностьДавлениеВетер, м/сВероятность осадков
    00:00Ясно и безоблачно+22°C47 %729 мм2.4 м/с5 %
    03:00Ясно и безоблачно+20°C60 %729 мм2.6 м/с5 %
    06:00Ясно и безоблачно+18°C63 %729 мм2.1 м/с5 %
    09:00Ясно и безоблачно+22°C51 %731 мм2.0 м/с5 %
    12:00Практически безоблачно+27°C35 %731 мм2.9 м/с5 %
    15:00Ясно и безоблачно+31°C25 %729 мм3.5 м/с5 %
    18:00Ясно и безоблачно+26°C38 %729 мм2.4 м/с5 %
    21:00Ясно и безоблачно+24°C43 %730 мм2.5 м/с5 %
Мы используем cookies
Соглашаюсь